Chadstone Weather > Observations for 13/03/21

Select Day:



Observations
Time Temp Hum DP Wind Gust Dir Rain >9am Press
C % C kph kph mm hPa
00:00 24.3 55 14.7 5.9 12.2 N 0.0 995.9
00:10 24.3 55 14.7 6.2 11.2 NNW 0.0 995.8
00:20 24.0 55 14.4 5.7 11.2 N 0.0 994.1
00:30 23.7 57 14.7 5.9 12.2 NNW 0.0 994.1
00:40 23.7 57 14.7 6.4 15.8 NNE 0.0 994.9
00:50 23.7 57 14.7 5.9 11.2 NNE 0.0 995.3
01:00 23.7 57 14.7 4.2 9.7 N 0.0 995.3
01:10 23.5 57 14.5 4.8 9.7 NNE 0.0 994.9
01:20 23.4 57 14.4 5.0 13.3 N 0.0 993.6
01:30 23.3 57 14.3 2.2 7.2 N 0.0 993.9
01:40 23.3 57 14.3 3.9 8.6 NNE 0.0 994.6
01:50 23.2 57 14.2 3.8 9.7 N 0.0 994.7
02:00 23.0 58 14.3 4.5 11.2 N 0.0 993.0
02:10 23.0 58 14.3 4.0 11.2 NNE 0.0 993.2
02:20 23.0 58 14.3 3.7 8.6 NNE 0.0 994.1
02:30 23.0 58 14.3 3.8 9.7 NNE 0.0 993.3
02:40 22.8 59 14.4 3.6 8.6 NNW 0.0 992.5
02:50 22.8 59 14.4 5.3 11.2 N 0.0 993.3
03:00 22.9 58 14.2 6.0 13.3 N 0.0 993.0
03:10 22.9 58 14.2 6.4 13.3 N 0.0 992.0
03:20 23.0 57 14.0 6.9 12.2 NNE 0.0 993.0
03:30 23.1 57 14.1 4.7 12.2 N 0.0 992.1
03:40 23.1 57 14.1 4.3 8.6 NNW 0.0 992.1
03:50 23.1 57 14.1 4.5 8.6 N 0.0 992.5
04:00 23.1 56 13.9 4.8 9.7 N 0.0 991.6
04:10 23.1 56 13.9 2.9 9.7 N 0.0 992.6
04:20 22.8 58 14.1 1.1 6.1 NW 0.0 991.4
04:30 22.6 58 13.9 2.7 7.2 N 0.0 991.6
04:40 22.7 58 14.0 3.6 7.2 N 0.0 991.5
04:50 22.9 57 13.9 4.3 12.2 N 0.0 991.3
05:00 23.2 56 14.0 5.6 12.2 NNW 0.0 991.1
05:10 23.3 56 14.0 5.5 11.2 NNW 0.0 991.1
05:20 23.2 57 14.2 4.1 8.6 N 0.0 991.3
05:30 23.0 57 14.0 3.2 7.2 NNW 0.0 990.9
05:40 22.9 58 14.2 2.9 8.6 NNW 0.0 991.1
05:50 22.3 61 14.4 1.8 3.6 WNW 0.0 991.6
06:00 22.0 61 14.1 0.7 3.6 NW 0.0 991.0
06:10 21.5 63 14.2 0.5 3.6 NW 0.0 991.8
06:20 21.3 64 14.2 1.0 5.0 NNW 0.0 990.8
06:30 21.3 65 14.5 3.0 9.7 N 0.0 990.3
06:40 22.0 63 14.6 6.9 14.8 NNE 0.0 989.9
06:50 22.6 62 15.0 7.2 14.8 N 0.0 989.7
07:00 23.0 62 15.3 7.2 18.4 N 0.0 990.1
07:10 23.4 61 15.5 11.1 23.4 NNE 0.0 990.1
07:20 23.8 60 15.6 13.1 25.6 N 0.0 990.2
07:30 23.8 60 15.6 9.6 18.4 N 0.0 990.3
07:40 23.8 60 15.6 8.5 17.3 N 0.0 990.5
07:50 23.6 60 15.4 6.2 12.2 NNW 0.0 990.9
08:00 23.8 60 15.6 9.9 19.4 NNW 0.0 990.7
08:10 24.0 59 15.5 7.9 13.3 N 0.0 990.7
08:20 24.0 60 15.8 7.0 14.8 N 0.0 990.8
08:30 24.1 60 15.9 7.6 14.8 NNW 0.0 990.9
08:40 24.6 60 16.3 7.4 15.8 N 0.0 991.3
08:50 24.7 60 16.4 6.1 13.3 NNW 0.0 991.2
09:00 24.9 60 16.6 6.0 13.3 NNW 0.0 991.2
09:10 25.0 59 16.5 9.5 23.4 NW 0.0 991.0
09:20 25.5 58 16.7 10.3 20.9 NNW 0.0 990.9
09:30 25.5 58 16.7 9.1 22.0 WNW 0.0 990.8
09:40 25.6 57 16.5 11.6 23.4 NNW 0.0 990.7
09:50 25.7 57 16.6 12.4 25.6 NNW 0.0 990.8
10:00 25.8 57 16.7 13.8 24.5 N 0.0 990.9
10:10 26.0 56 16.6 11.5 23.4 NW 0.0 990.7
10:20 26.2 55 16.5 11.1 22.0 NNW 0.0 990.8
10:30 26.2 55 16.5 11.4 23.4 NNW 0.0 990.9
10:40 26.4 55 16.7 9.5 23.4 NNW 0.0 990.9
10:50 26.4 54 16.4 7.8 18.4 NW 0.0 991.1
11:00 26.4 54 16.4 7.6 17.3 NW 0.0 990.8
11:10 26.5 54 16.5 9.1 18.4 NW 0.0 991.0
11:20 26.7 54 16.6 8.3 17.3 NW 0.0 991.2
11:30 26.9 54 16.8 6.0 17.3 NNW 0.0 991.4
11:40 26.8 53 16.4 8.1 14.8 NW 0.0 992.0
11:50 26.1 48 14.3 6.7 19.4 SSW 0.0 992.1
12:00 25.4 50 14.2 3.9 17.3 SW 0.0 992.6
12:10 24.9 52 14.4 9.1 25.6 SW 0.0 992.6
12:20 24.6 53 14.4 5.0 14.8 SW 0.0 992.5
12:30 24.2 54 14.3 4.9 14.8 S 0.0 992.5
12:40 23.8 57 14.8 3.4 9.7 W 0.0 992.6
12:50 23.6 59 15.1 4.2 12.2 SSW 0.0 992.8
13:00 23.6 61 15.7 3.7 19.4 SSE 0.0 992.8
13:10 23.3 64 16.1 3.5 11.2 WNW 0.0 992.6
13:20 23.1 65 16.2 2.5 11.2 SW 0.0 992.8
13:30 23.2 66 16.5 4.3 15.8 S 0.0 992.9
13:40 23.1 67 16.7 3.1 15.8 S 0.0 993.1
13:50 22.8 68 16.6 3.0 12.2 SSW 0.0 993.4
14:00 22.6 71 17.1 4.2 13.3 SW 0.0 993.6
14:10 22.4 72 17.1 3.7 13.3 SSE 0.0 993.3
14:20 21.9 75 17.3 5.0 14.8 WSW 0.0 993.4
14:30 21.5 77 17.3 6.1 14.8 SW 0.0 993.5
14:40 21.1 79 17.3 2.3 7.2 NNW 0.3 993.6
14:50 20.8 82 17.6 1.3 8.6 S 0.3 993.7
15:00 20.8 84 18.0 2.1 6.1 WSW 0.9 994.1
15:10 20.5 85 17.9 2.4 13.3 W 2.1 994.1
15:20 20.5 86 18.1 2.4 7.2 W 3.9 994.3
15:30 20.3 87 18.1 4.9 12.2 SW 5.1 994.5
15:40 20.2 88 18.2 3.6 7.2 WSW 6.0 994.4
15:50 20.0 89 18.1 4.2 14.8 W 8.7 994.7
16:00 19.0 90 17.3 5.9 17.3 SW 11.1 994.9
16:10 18.0 90 16.3 6.2 24.5 SW 12.3 995.0
16:20 17.6 91 16.1 7.2 18.4 WSW 12.9 995.0
16:30 17.7 91 16.2 3.7 12.2 WSW 13.5 995.2
16:40 17.8 92 16.5 6.7 18.4 W 14.7 995.5
16:50 17.6 92 16.3 6.9 15.8 W 15.9 995.6
17:00 17.5 92 16.2 5.1 11.2 WNW 17.1 995.7
17:10 17.4 93 16.3 2.3 12.2 W 18.0 995.7
17:20 17.3 93 16.2 4.9 13.3 SSW 18.6 996.1
17:30 17.3 93 16.2 2.9 17.3 WSW 18.9 996.1
17:40 17.2 93 16.1 5.1 17.3 W 19.2 996.4
17:50 17.1 93 16.0 3.2 9.7 WNW 19.2 995.8
18:00 17.0 93 15.9 3.8 7.2 NW 19.5 996.1
18:10 17.0 93 15.9 2.1 9.7 SW 19.5 996.4
18:20 17.0 93 15.9 3.4 14.8 W 19.5 996.9
18:30 16.6 94 15.6 4.5 12.2 SW 20.4 996.7
18:40 16.1 94 15.1 3.4 9.7 SSE 21.0 996.8
18:50 15.6 95 14.8 5.8 28.1 SE 21.0 997.2
19:00 15.2 95 14.4 3.9 13.3 SSE 21.0 997.4
19:10 15.2 95 14.4 2.5 13.3 SSE 21.3 997.9
19:20 15.2 95 14.4 0.6 5.0 SW 21.3 998.0
19:30 15.2 95 14.4 2.5 9.7 S 21.3 997.7
19:40 15.0 95 14.2 1.3 6.1 SSW 21.3 998.2
19:50 15.0 94 14.0 0.8 6.1 SSW 21.3 998.6
20:00 14.9 94 13.9 0.6 7.2 SSW 21.3 998.6
20:10 14.9 94 13.9 1.3 7.2 SW 21.3 998.8
20:20 14.9 93 13.8 0.1 2.5 S 21.3 998.9
20:30 15.0 93 13.9 0.1 3.6 SSW 21.3 998.9
20:40 15.0 93 13.9 0.2 13.3 SW 21.3 999.5
20:50 14.9 94 13.9 3.4 20.9 SSE 21.9 1000.0
21:00 14.7 94 13.8 5.2 11.2 S 22.2 1000.3
21:10 14.7 95 13.9 0.9 7.2 S 22.2 1000.7
21:20 14.5 95 13.7 1.4 7.2 SSW 22.2 1000.9
21:30 14.5 94 13.6 1.0 7.2 S 22.2 1001.0
21:40 14.5 93 13.4 1.4 8.6 S 22.2 1001.3
21:50 14.5 91 13.1 0.3 6.1 SSW 22.2 1001.5
22:00 14.5 89 12.7 0.7 5.0 SSW 22.2 1001.6
22:10 14.5 88 12.5 1.6 7.2 S 22.2 1001.8
22:20 14.5 87 12.4 1.4 15.8 S 22.2 1002.0
22:30 14.6 86 12.3 1.9 7.2 SSE 22.2 1001.6
22:40 14.5 86 12.2 1.5 9.7 SSW 22.2 1001.8
22:50 14.3 86 12.0 2.3 11.2 SSW 22.2 1000.6
23:00 14.2 86 11.9 0.5 6.1 SSE 22.2 1001.2
23:10 14.2 86 11.9 1.0 5.0 SSW 22.2 1000.8
23:20 14.2 86 11.9 0.3 5.0 SSW 22.2 1000.4
23:30 14.4 86 12.1 0.3 5.0 SW 22.2 1000.5
23:40 14.5 87 12.4 1.2 5.0 SW 22.2 1000.6
23:50 14.5 86 12.2 0.9 6.1 WSW 22.2 1000.3